Time;durP1;ratioP1;P1;durP2;ratioP2;P2;SDS_P1;SDS_P2;PMS_P1;PMS_P2;Temp;Humidity;BMP_temperature;BMP_pressure;BME280_temperature;BME280_humidity;BME280_pressure;Samples;Min_cycle;Max_cycle;Signal;HPM_P1;HPM_P2
2022/03/30 00:00:28;;;;;;;0.10;0.10;;;;;;;21.12;35.82;100295.31;5129169;27;20147;-37
2022/03/30 00:02:54;;;;;;;0.10;0.10;;;;;;;21.12;36.08;100287.00;5150133;27;20378;-36
2022/03/30 00:05:20;;;;;;;0.10;0.10;;;;;;;21.12;35.92;100287.00;5150324;27;20051;-37
2022/03/30 00:07:54;;;;;;;0.10;0.10;;;;;;;21.11;35.94;100288.94;5130779;27;20066;-39
2022/03/30 00:10:20;;;;;;;0.20;0.20;;;;;;;21.11;35.97;100282.56;5115043;27;20070;-33
2022/03/30 00:12:47;;;;;;;0.15;0.15;;;;;;;21.11;35.85;100288.13;5150225;27;20129;-38
2022/03/30 00:15:13;;;;;;;0.10;0.10;;;;;;;21.12;35.82;100278.69;5132336;27;20467;-32
2022/03/30 00:17:38;;;;;;;0.10;0.10;;;;;;;21.11;35.87;100279.81;5150850;27;20070;-33
2022/03/30 00:20:05;;;;;;;0.10;0.10;;;;;;;21.10;35.87;100279.00;5148434;27;20050;-34
2022/03/30 00:22:30;;;;;;;0.10;0.10;;;;;;;21.10;36.01;100279.00;5151423;27;20212;-35
2022/03/30 00:24:56;;;;;;;0.10;0.10;;;;;;;21.11;35.93;100277.03;5149293;27;20043;-36
2022/03/30 00:27:22;;;;;;;0.10;0.10;;;;;;;21.10;35.95;100269.88;5151931;27;20428;-36
2022/03/30 00:29:48;;;;;;;0.20;0.20;;;;;;;21.10;36.14;100272.63;5150206;27;20074;-37
2022/03/30 00:32:13;;;;;;;0.10;0.10;;;;;;;21.09;36.09;100277.38;5150810;27;20397;-35
2022/03/30 00:34:39;;;;;;;0.10;0.10;;;;;;;21.09;35.79;100271.81;5149859;27;20042;-37
2022/03/30 00:37:07;;;;;;;0.10;0.10;;;;;;;21.08;35.92;100264.66;5154848;27;20070;-36
2022/03/30 00:39:33;;;;;;;0.10;0.10;;;;;;;21.07;36.09;100260.25;5148435;27;20134;-36
2022/03/30 00:41:58;;;;;;;0.10;0.10;;;;;;;21.08;36.14;100261.88;5149742;27;20046;-36
2022/03/30 00:44:24;;;;;;;0.10;0.10;;;;;;;21.07;35.94;100265.78;5150322;27;20039;-35
2022/03/30 00:46:50;;;;;;;0.10;0.10;;;;;;;21.09;35.90;100268.25;5116406;28;20039;-32
2022/03/30 00:49:16;;;;;;;0.10;0.10;;;;;;;21.09;35.82;100268.25;5128904;27;20086;-37
2022/03/30 00:51:41;;;;;;;0.13;0.13;;;;;;;21.08;35.85;100263.84;5147839;27;20050;-36
2022/03/30 00:54:07;;;;;;;0.10;0.10;;;;;;;21.08;36.06;100270.19;5149277;27;20095;-35
2022/03/30 00:56:34;;;;;;;0.10;0.10;;;;;;;21.08;36.18;100269.38;5150872;27;20527;-34
2022/03/30 00:59:01;;;;;;;0.10;0.10;;;;;;;21.07;36.18;100267.72;5149876;27;20552;-36
2022/03/30 01:01:27;;;;;;;0.10;0.10;;;;;;;21.08;35.75;100266.59;5128990;27;20126;-37
2022/03/30 01:03:54;;;;;;;0.10;0.10;;;;;;;21.07;36.03;100257.50;5149832;27;20050;-32
2022/03/30 01:06:19;;;;;;;0.10;0.10;;;;;;;21.07;36.11;100262.19;5148533;27;20070;-32
2022/03/30 01:08:46;;;;;;;0.10;0.10;;;;;;;21.07;36.10;100253.88;5149455;27;20103;-33
2022/03/30 01:11:12;;;;;;;0.10;0.10;;;;;;;21.06;35.98;100253.06;5148753;27;20130;-36
2022/03/30 01:13:39;;;;;;;0.20;0.20;;;;;;;21.05;36.18;100252.25;5148679;27;20129;-36
2022/03/30 01:16:25;;;;;;;0.10;0.10;;;;;;;21.05;36.07;100243.94;5133167;27;20462;-33
2022/03/30 01:19:01;;;;;;;0.10;0.10;;;;;;;21.05;36.19;100243.94;5149659;27;20138;-35
2022/03/30 01:21:27;;;;;;;0.10;0.10;;;;;;;21.05;35.94;100243.94;5148140;27;20130;-34
2022/03/30 01:23:52;;;;;;;0.10;0.10;;;;;;;21.05;35.74;100240.34;5149056;27;20035;-34
2022/03/30 01:26:18;;;;;;;0.10;0.10;;;;;;;21.05;36.25;100235.63;5148765;27;20061;-35
2022/03/30 01:28:44;;;;;;;0.10;0.10;;;;;;;21.04;35.98;100228.47;5149411;27;20073;-32
2022/03/30 01:33:56;;;;;;;0.10;0.10;;;;;;;21.03;35.92;100224.06;5130978;27;20071;-32
2022/03/30 01:36:22;;;;;;;0.10;0.10;;;;;;;21.05;35.93;100229.28;5150048;27;20070;-33
2022/03/30 01:38:48;;;;;;;0.13;0.13;;;;;;;21.04;35.98;100225.69;5143458;27;20563;-38
2022/03/30 01:41:14;;;;;;;0.10;0.10;;;;;;;21.04;36.13;100222.09;5147614;27;20083;-36
2022/03/30 01:43:39;;;;;;;0.10;0.10;;;;;;;21.04;35.99;100211.84;5148152;27;20046;-35
2022/03/30 01:46:05;;;;;;;0.20;0.20;;;;;;;21.03;35.96;100218.53;5148723;27;20047;-34
2022/03/30 01:48:31;;;;;;;0.10;0.10;;;;;;;21.04;35.98;100213.81;5148437;27;20066;-37
2022/03/30 01:50:57;;;;;;;0.10;0.10;;;;;;;21.03;36.32;100210.22;5147816;27;20042;-35
2022/03/30 01:53:22;;;;;;;0.10;0.10;;;;;;;21.03;35.99;100204.69;5148963;27;20769;-36
2022/03/30 01:55:48;;;;;;;0.32;0.20;;;;;;;21.03;36.08;100210.22;5148034;27;20043;-35
2022/03/30 01:58:16;;;;;;;0.20;0.20;;;;;;;21.03;36.20;100201.91;5147755;27;20103;-35
2022/03/30 02:00:42;;;;;;;0.10;0.10;;;;;;;21.03;36.20;100201.91;5148135;27;20066;-34
2022/03/30 02:03:08;;;;;;;0.10;0.10;;;;;;;21.02;35.98;100191.13;5148327;27;20129;-37
2022/03/30 02:05:34;;;;;;;0.15;0.15;;;;;;;21.02;35.91;100189.19;5148990;27;20134;-36
2022/03/30 02:08:00;;;;;;;0.10;0.10;;;;;;;21.01;36.14;100182.00;5148271;27;20397;-33
2022/03/30 02:10:28;;;;;;;0.20;0.20;;;;;;;21.01;36.18;100184.78;5148779;27;20081;-33
2022/03/30 02:12:53;;;;;;;0.10;0.10;;;;;;;21.01;36.10;100189.50;5148920;27;20131;-34
2022/03/30 02:15:19;;;;;;;0.10;0.10;;;;;;;21.02;36.13;100185.59;5147653;27;20035;-34
2022/03/30 02:17:45;;;;;;;0.10;0.10;;;;;;;21.01;36.29;100184.78;5148233;27;20053;-33
2022/03/30 02:20:11;;;;;;;0.10;0.10;;;;;;;21.01;36.05;100186.72;5146134;27;20046;-37
2022/03/30 02:22:37;;;;;;;0.10;0.10;;;;;;;21.02;36.17;100185.59;5148827;27;20138;-33
2022/03/30 02:25:03;;;;;;;0.10;0.10;;;;;;;21.01;36.05;100179.25;5148931;27;20039;-35
2022/03/30 02:27:29;;;;;;;0.10;0.10;;;;;;;21.02;36.20;100174.53;5149351;27;20070;-34
2022/03/30 02:29:55;;;;;;;0.10;0.10;;;;;;;21.01;36.18;100181.19;5148626;27;20462;-35
2022/03/30 02:32:21;;;;;;;0.13;0.13;;;;;;;21.00;35.96;100180.38;5148145;27;20477;-32
2022/03/30 02:34:47;;;;;;;0.15;0.15;;;;;;;21.00;35.88;100174.84;5129885;27;20146;-36
2022/03/30 02:37:13;;;;;;;0.17;0.17;;;;;;;21.00;36.35;100169.31;5147743;27;20116;-34
2022/03/30 02:39:39;;;;;;;0.10;0.10;;;;;;;21.00;36.13;100171.25;5146803;27;20090;-32
2022/03/30 02:42:06;;;;;;;0.10;0.10;;;;;;;21.00;36.10;100166.53;5148015;27;20093;-34
2022/03/30 02:44:32;;;;;;;0.10;0.10;;;;;;;20.99;36.13;100162.13;5148417;27;20484;-32
2022/03/30 02:46:58;;;;;;;0.10;0.10;;;;;;;20.99;35.96;100159.38;5148673;27;20043;-34
2022/03/30 02:49:25;;;;;;;0.20;0.20;;;;;;;20.99;36.22;100156.59;5147874;27;20123;-31
2022/03/30 02:51:50;;;;;;;0.20;0.20;;;;;;;20.99;35.98;100151.06;5133437;27;20191;-36
2022/03/30 02:54:16;;;;;;;0.10;0.10;;;;;;;21.00;36.05;100147.16;5151988;27;20035;-33
2022/03/30 02:56:41;;;;;;;0.10;0.10;;;;;;;20.99;36.31;100147.47;5152196;27;20049;-33
2022/03/30 02:59:07;;;;;;;0.10;0.10;;;;;;;20.98;35.98;100141.13;5150840;27;20042;-34
2022/03/30 03:01:33;;;;;;;0.13;0.13;;;;;;;20.99;36.10;100148.31;5152055;27;20457;-34
2022/03/30 03:03:58;;;;;;;0.20;0.20;;;;;;;20.99;36.36;100141.94;5151235;27;20420;-35
2022/03/30 03:06:25;;;;;;;0.10;0.10;;;;;;;20.98;35.92;100138.38;5151057;27;20035;-34
2022/03/30 03:08:51;;;;;;;0.20;0.20;;;;;;;20.99;36.19;100134.47;5151771;27;20426;-36
2022/03/30 03:11:17;;;;;;;0.10;0.10;;;;;;;20.98;36.02;100131.97;5150748;27;20126;-33
2022/03/30 03:13:43;;;;;;;0.13;0.13;;;;;;;20.98;35.99;100135.59;5151626;27;20135;-33
2022/03/30 03:16:11;;;;;;;0.13;0.13;;;;;;;20.97;36.30;100136.72;5150915;27;20047;-33
2022/03/30 03:18:37;;;;;;;0.10;0.10;;;;;;;20.98;36.17;100140.28;5151452;27;20034;-34
2022/03/30 03:21:03;;;;;;;0.20;0.20;;;;;;;20.98;36.13;100137.53;5149679;27;20035;-34
2022/03/30 03:23:28;;;;;;;0.20;0.20;;;;;;;20.97;36.03;100133.94;5151538;27;20046;-33
2022/03/30 03:25:54;;;;;;;0.10;0.10;;;;;;;20.96;36.40;100137.84;5151319;27;20486;-36
2022/03/30 03:28:20;;;;;;;0.10;0.10;;;;;;;20.96;36.23;100132.31;5152159;27;20103;-34
2022/03/30 03:30:46;;;;;;;0.10;0.10;;;;;;;20.98;36.08;100137.53;5131359;27;20046;-33
2022/03/30 03:33:11;;;;;;;0.10;0.10;;;;;;;20.97;36.08;100135.88;5148941;27;20433;-36
2022/03/30 03:35:38;;;;;;;0.10;0.10;;;;;;;20.97;36.16;100135.88;5153160;27;20289;-35
2022/03/30 03:38:05;;;;;;;0.10;0.10;;;;;;;20.96;36.23;100135.06;5151123;27;20114;-33
2022/03/30 03:40:31;;;;;;;0.20;0.20;;;;;;;20.96;36.03;100132.31;5150212;27;20138;-33
2022/03/30 03:42:58;;;;;;;0.10;0.10;;;;;;;20.96;36.18;100131.50;5150711;27;20409;-34
2022/03/30 03:45:24;;;;;;;0.10;0.10;;;;;;;20.97;36.17;100130.34;5131858;27;20066;-34
2022/03/30 03:47:51;;;;;;;0.10;0.10;;;;;;;20.96;36.25;100125.97;5150581;27;20058;-33
2022/03/30 03:50:16;;;;;;;0.10;0.10;;;;;;;20.96;36.06;100126.78;5148226;27;20157;-33
2022/03/30 03:52:42;;;;;;;0.10;0.10;;;;;;;20.96;36.27;100129.53;5150899;27;20050;-33
2022/03/30 03:55:09;;;;;;;0.10;0.10;;;;;;;20.96;36.11;100129.53;5132121;27;20146;-33
2022/03/30 03:57:38;;;;;;;0.10;0.10;;;;;;;20.96;36.01;100128.72;5149307;27;20067;-34
2022/03/30 04:00:04;;;;;;;0.10;0.10;;;;;;;20.94;36.04;100129.03;5131042;27;20529;-34
2022/03/30 04:02:30;;;;;;;0.10;0.10;;;;;;;20.95;36.18;100127.91;5151378;27;20183;-34
2022/03/30 04:04:56;;;;;;;0.10;0.10;;;;;;;20.94;36.21;100126.28;5150617;27;20094;-37
2022/03/30 04:07:21;;;;;;;0.10;0.10;;;;;;;20.96;36.32;100117.66;5150989;27;20050;-36
2022/03/30 04:09:47;;;;;;;0.10;0.10;;;;;;;20.94;36.06;100123.50;5149529;27;20044;-35
2022/03/30 04:12:14;;;;;;;0.10;0.10;;;;;;;20.94;36.18;100129.03;5150848;27;20055;-35
2022/03/30 04:14:39;;;;;;;0.10;0.10;;;;;;;20.95;36.15;100122.38;5149850;27;20050;-34
2022/03/30 04:17:05;;;;;;;0.10;0.10;;;;;;;20.94;36.12;100119.91;5149623;27;20485;-33
2022/03/30 04:19:31;;;;;;;0.10;0.10;;;;;;;20.94;36.34;100117.13;5148157;27;20051;-37
2022/03/30 04:21:57;;;;;;;0.10;0.10;;;;;;;20.94;36.06;100106.91;5150783;27;20050;-34
2022/03/30 04:24:22;;;;;;;0.10;0.10;;;;;;;20.94;36.25;100108.81;5131936;27;20035;-34
2022/03/30 04:26:48;;;;;;;0.20;0.20;;;;;;;20.94;36.05;100108.81;5150756;27;20473;-33
2022/03/30 04:29:14;;;;;;;0.20;0.20;;;;;;;20.94;36.01;100104.13;5149950;27;20055;-33
2022/03/30 04:31:39;;;;;;;0.10;0.10;;;;;;;20.94;36.21;100104.13;5149814;27;20043;-34
2022/03/30 04:34:05;;;;;;;0.20;0.20;;;;;;;20.94;36.09;100101.38;5148394;27;20374;-34
2022/03/30 04:36:30;;;;;;;0.20;0.20;;;;;;;20.94;36.10;100095.00;5129305;27;20061;-36
2022/03/30 04:38:56;;;;;;;0.10;0.10;;;;;;;20.94;36.19;100098.59;5147622;27;20038;-33
2022/03/30 04:41:23;;;;;;;0.10;0.10;;;;;;;20.93;36.09;100094.16;5148680;27;20039;-36
2022/03/30 04:43:49;;;;;;;0.10;0.10;;;;;;;20.93;36.18;100094.16;5149944;27;20088;-36
2022/03/30 04:46:15;;;;;;;0.10;0.10;;;;;;;20.94;36.13;100092.22;5149638;27;20066;-33
2022/03/30 04:48:41;;;;;;;0.20;0.20;;;;;;;20.94;36.16;100092.22;5149466;27;20081;-36
2022/03/30 04:51:06;;;;;;;0.10;0.10;;;;;;;20.93;36.23;100094.16;5127492;27;20488;-33
2022/03/30 04:53:32;;;;;;;0.20;0.20;;;;;;;20.94;36.33;100103.28;5150157;27;20035;-35
2022/03/30 04:55:58;;;;;;;0.10;0.10;;;;;;;20.93;36.30;100094.16;5131007;27;20497;-35
2022/03/30 04:58:24;;;;;;;0.20;0.20;;;;;;;20.93;36.47;100093.34;5149428;27;20050;-35
2022/03/30 05:00:49;;;;;;;0.20;0.20;;;;;;;20.93;36.17;100091.41;5148036;27;20393;-35
2022/03/30 05:03:16;;;;;;;0.20;0.20;;;;;;;20.93;36.13;100093.34;5149114;27;20050;-34
2022/03/30 05:05:41;;;;;;;0.20;0.20;;;;;;;20.92;36.34;100091.72;5148612;27;20682;-32
2022/03/30 05:08:07;;;;;;;0.10;0.10;;;;;;;20.93;36.17;100091.41;5149037;27;20066;-35
2022/03/30 05:10:34;;;;;;;0.17;0.17;;;;;;;20.92;36.13;100095.31;5147832;27;20091;-36
2022/03/30 05:13:00;;;;;;;0.20;0.20;;;;;;;20.91;36.18;100096.44;5150680;27;20043;-33
2022/03/30 05:15:28;;;;;;;0.20;0.20;;;;;;;20.92;36.33;100094.50;5148894;27;20401;-33
2022/03/30 05:17:54;;;;;;;0.10;0.10;;;;;;;20.92;36.06;100092.53;5130840;27;20137;-36
2022/03/30 05:20:21;;;;;;;0.20;0.20;;;;;;;20.93;36.16;100093.34;5130507;27;20599;-36
2022/03/30 05:22:47;;;;;;;0.20;0.20;;;;;;;20.91;36.31;100090.91;5111328;27;20629;-36
2022/03/30 05:25:15;;;;;;;0.10;0.10;;;;;;;20.93;36.34;100093.34;5148129;27;20042;-35
2022/03/30 05:27:41;;;;;;;0.10;0.10;;;;;;;20.92;36.21;100091.72;5149771;27;20097;-35
2022/03/30 05:30:09;;;;;;;0.10;0.10;;;;;;;20.92;36.01;100088.97;5131131;27;20142;-35
2022/03/30 05:32:35;;;;;;;0.10;0.10;;;;;;;20.91;35.92;100093.69;5127104;27;20517;-33
2022/03/30 05:35:01;;;;;;;0.20;0.20;;;;;;;20.92;36.27;100091.72;5153044;27;20045;-34
2022/03/30 05:37:27;;;;;;;0.20;0.20;;;;;;;20.92;36.08;100092.53;5129510;27;20134;-36
2022/03/30 05:39:53;;;;;;;0.10;0.10;;;;;;;20.92;36.11;100098.06;5148378;27;20594;-35
2022/03/30 05:42:20;;;;;;;0.20;0.20;;;;;;;20.92;36.01;100091.72;5148300;27;20392;-32
2022/03/30 05:44:46;;;;;;;0.20;0.20;;;;;;;20.91;36.28;100090.09;5144456;27;20062;-32
2022/03/30 05:47:14;;;;;;;0.20;0.20;;;;;;;20.91;35.95;100093.69;5143367;27;20043;-33
2022/03/30 05:49:39;;;;;;;0.10;0.10;;;;;;;20.91;36.06;100098.41;5136086;27;20142;-33
2022/03/30 05:52:05;;;;;;;0.20;0.20;;;;;;;20.90;36.16;100091.25;5137160;27;20050;-36
2022/03/30 05:54:33;;;;;;;0.10;0.10;;;;;;;20.92;36.10;100094.50;5122365;27;20066;-34
2022/03/30 05:57:02;;;;;;;0.10;0.10;;;;;;;20.91;36.29;100099.22;5131479;27;20433;-33
2022/03/30 05:59:29;;;;;;;0.20;0.20;;;;;;;20.87;35.89;100103.75;5126217;27;20043;-34
2022/03/30 06:01:55;;;;;;;0.20;0.20;;;;;;;20.92;36.06;100094.50;5133013;27;20192;-37
2022/03/30 06:04:21;;;;;;;0.20;0.20;;;;;;;20.73;35.23;100102.97;5097499;27;20088;-35
2022/03/30 06:06:46;;;;;;;0.10;0.10;;;;;;;20.85;35.95;100100.44;5134133;27;20050;-36
2022/03/30 06:09:12;;;;;;;0.30;0.30;;;;;;;20.91;35.90;100095.63;5135436;27;20034;-37
2022/03/30 06:11:38;;;;;;;0.10;0.10;;;;;;;20.93;35.88;100104.44;5113669;27;20035;-36
2022/03/30 06:14:03;;;;;;;0.10;0.10;;;;;;;20.93;36.03;100102.47;5142255;27;20042;-33
2022/03/30 06:16:29;;;;;;;0.10;0.10;;;;;;;20.96;35.70;100109.34;5142251;27;20409;-37
2022/03/30 06:18:55;;;;;;;0.10;0.10;;;;;;;20.96;35.81;100106.59;5136017;27;20097;-36
2022/03/30 06:21:21;;;;;;;0.13;0.13;;;;;;;20.97;36.11;100119.28;5113763;27;20475;-36
2022/03/30 06:23:47;;;;;;;0.13;0.13;;;;;;;20.97;36.13;100113.75;5144995;27;20043;-33
2022/03/30 06:26:12;;;;;;;0.10;0.10;;;;;;;20.99;35.66;100122.56;5118486;27;20042;-33
2022/03/30 06:28:38;;;;;;;0.10;0.10;;;;;;;20.99;35.77;100115.09;5140495;27;20413;-35
2022/03/30 06:31:04;;;;;;;0.10;0.10;;;;;;;21.00;35.62;100124.19;5142619;27;20523;-33
2022/03/30 06:33:29;;;;;;;0.10;0.10;;;;;;;21.00;35.62;100119.47;5141412;27;20046;-36
2022/03/30 06:35:55;;;;;;;0.10;0.10;;;;;;;21.00;35.68;100125.03;5140829;27;20047;-33
2022/03/30 06:38:21;;;;;;;0.10;0.10;;;;;;;21.02;35.67;100133.00;5142600;27;20549;-37
2022/03/30 06:40:47;;;;;;;0.10;0.10;;;;;;;21.02;35.77;100130.22;5137964;27;20064;-38
2022/03/30 06:43:14;;;;;;;0.10;0.10;;;;;;;21.03;35.93;100123.59;5137962;27;20059;-33
2022/03/30 06:45:40;;;;;;;0.10;0.10;;;;;;;21.03;35.77;100134.66;5119268;27;20482;-36
2022/03/30 06:48:12;;;;;;;0.10;0.10;;;;;;;21.04;35.70;100134.34;5140014;27;20051;-35
2022/03/30 06:50:38;;;;;;;0.10;0.10;;;;;;;21.05;35.67;100132.38;5138500;27;20138;-32
2022/03/30 06:53:07;;;;;;;0.10;0.10;;;;;;;21.05;35.59;100137.91;5125406;27;20141;-35
2022/03/30 06:55:33;;;;;;;0.10;0.10;;;;;;;21.07;35.70;100134.81;5135026;27;20133;-36
2022/03/30 06:57:58;;;;;;;0.13;0.13;;;;;;;21.08;35.14;100131.75;5128251;27;20046;-33
2022/03/30 07:00:24;;;;;;;0.13;0.13;;;;;;;21.08;35.39;100131.75;5140582;27;20046;-34
2022/03/30 07:02:52;;;;;;;0.10;0.10;;;;;;;21.10;35.36;100125.91;5138271;27;20070;-39
2022/03/30 07:05:18;;;;;;;0.10;0.10;;;;;;;21.10;35.34;100125.91;5138598;27;20050;-39
2022/03/30 07:10:31;;;;;;;0.10;0.10;;;;;;;21.11;35.18;100127.53;5119531;27;20710;-33
2022/03/30 07:12:57;;;;;;;0.10;0.10;;;;;;;21.11;35.37;100128.34;5125392;27;20043;-35
2022/03/30 07:15:23;;;;;;;0.10;0.10;;;;;;;21.12;35.45;100127.25;5133661;27;20061;-35
2022/03/30 07:17:58;;;;;;;0.20;0.20;;;;;;;21.11;35.40;100122.81;5136390;27;20465;-33
2022/03/30 07:20:30;;;;;;;0.10;0.10;;;;;;;21.13;35.54;100116.97;5117701;27;20552;-37
2022/03/30 07:22:57;;;;;;;0.10;0.10;;;;;;;21.12;35.41;100120.88;5140090;27;20138;-35
2022/03/30 07:25:24;;;;;;;0.10;0.10;;;;;;;20.95;35.04;100116.03;5139137;27;20129;-35
2022/03/30 07:27:51;;;;;;;0.10;0.10;;;;;;;21.07;34.87;100115.44;5139224;27;20124;-34
2022/03/30 07:30:19;;;;;;;0.10;0.10;;;;;;;21.09;35.06;100119.56;5118991;27;20133;-36
2022/03/30 07:32:47;;;;;;;0.10;0.10;;;;;;;21.10;35.10;100110.09;5116868;27;20142;-32
2022/03/30 07:35:16;;;;;;;0.10;0.10;;;;;;;21.12;34.97;100113.41;5139318;27;20138;-36
2022/03/30 07:37:43;;;;;;;0.10;0.10;;;;;;;21.13;35.02;100111.44;5128761;27;20050;-37
2022/03/30 07:40:11;;;;;;;0.10;0.10;;;;;;;21.14;34.75;100111.13;5131329;27;20101;-37
2022/03/30 07:42:37;;;;;;;0.17;0.17;;;;;;;21.14;34.91;100111.13;5138380;27;20139;-33
2022/03/30 07:45:04;;;;;;;0.10;0.10;;;;;;;21.16;34.92;100102.53;5121155;27;20047;-37
2022/03/30 07:47:31;;;;;;;0.10;0.10;;;;;;;21.16;34.86;100106.09;5137858;27;20161;-33
2022/03/30 07:49:58;;;;;;;0.20;0.20;;;;;;;21.17;34.74;100104.97;5118906;27;20172;-32
2022/03/30 07:52:24;;;;;;;0.20;0.20;;;;;;;21.17;34.86;100104.16;5113041;27;20133;-35
2022/03/30 07:54:49;;;;;;;0.10;0.10;;;;;;;21.17;34.98;100104.97;5107119;27;20130;-36
2022/03/30 07:57:18;;;;;;;0.20;0.20;;;;;;;21.19;35.08;100110.19;5134876;27;20047;-36
2022/03/30 07:59:43;;;;;;;0.20;0.20;;;;;;;20.94;33.88;100106.91;5104967;27;20133;-34
2022/03/30 08:02:10;;;;;;;0.10;0.10;;;;;;;21.11;34.34;100110.91;5138856;27;21472;-36
2022/03/30 08:04:36;;;;;;;0.10;0.10;;;;;;;21.18;34.36;100108.56;5134651;27;20070;-33
2022/03/30 08:07:02;;;;;;;0.15;0.15;;;;;;;21.20;34.44;100107.13;5138321;27;20478;-33
2022/03/30 08:09:27;;;;;;;0.20;0.20;;;;;;;21.03;32.65;100112.50;5136109;27;20046;-37
2022/03/30 08:11:53;;;;;;;0.20;0.20;;;;;;;21.00;33.29;100110.38;5138843;27;20070;-37
2022/03/30 08:14:24;;;;;;;0.10;0.10;;;;;;;21.01;33.40;100096.19;5120613;27;20055;-36
2022/03/30 08:16:50;;;;;;;0.20;0.20;;;;;;;21.16;33.58;100100.56;5140308;27;20525;-36
2022/03/30 08:19:15;;;;;;;0.10;0.10;;;;;;;21.23;33.93;100097.34;5139272;27;20508;-35
2022/03/30 08:24:27;;;;;;;0.13;0.13;;;;;;;21.29;34.08;100098.88;5117583;27;20201;-34
2022/03/30 08:26:52;;;;;;;0.10;0.10;;;;;;;21.32;34.05;100103.78;5136494;27;20042;-35
2022/03/30 08:29:18;;;;;;;0.10;0.10;;;;;;;21.32;34.20;100102.97;5136121;27;20045;-34
2022/03/30 08:31:51;;;;;;;0.10;0.10;;;;;;;21.14;33.05;100099.22;5134498;27;20055;-36
2022/03/30 08:34:19;;;;;;;0.10;0.10;;;;;;;21.25;33.74;100090.38;5115855;27;20081;-35
2022/03/30 08:36:45;;;;;;;0.10;0.10;;;;;;;21.31;33.86;100096.59;5135635;27;20173;-36
2022/03/30 08:39:11;;;;;;;0.10;0.10;;;;;;;21.35;33.96;100096.81;5119162;27;20126;-33
2022/03/30 08:41:45;;;;;;;0.10;0.10;;;;;;;21.36;33.73;100088.19;5100054;27;20210;-37
2022/03/30 08:44:17;;;;;;;0.10;0.10;;;;;;;21.38;33.79;100082.34;5118912;27;20338;-33
2022/03/30 08:46:45;;;;;;;0.10;0.10;;;;;;;21.38;33.80;100083.16;5142315;27;20078;-35
2022/03/30 08:49:12;;;;;;;0.10;0.10;;;;;;;21.41;33.79;100096.34;5119420;27;20058;-35
2022/03/30 08:51:39;;;;;;;0.10;0.10;;;;;;;21.42;33.79;100080.56;5141599;27;20507;-36
2022/03/30 08:54:09;;;;;;;0.10;0.10;;;;;;;21.42;33.88;100080.56;5121012;27;20504;-33
2022/03/30 08:56:37;;;;;;;0.10;0.10;;;;;;;21.42;33.79;100075.84;5125706;27;20195;-36
2022/03/30 08:59:04;;;;;;;0.10;0.10;;;;;;;21.45;33.80;100088.22;5146256;27;20497;-37
2022/03/30 09:01:34;;;;;;;0.15;0.15;;;;;;;21.45;33.90;100082.69;5141167;27;20081;-33
2022/03/30 09:04:03;;;;;;;0.10;0.10;;;;;;;21.45;33.91;100083.50;5118368;27;20042;-36
2022/03/30 09:06:34;;;;;;;0.10;0.10;;;;;;;21.46;33.81;100092.63;5110842;27;20138;-35
2022/03/30 09:09:00;;;;;;;0.10;0.10;;;;;;;21.46;33.98;100093.47;5123216;27;20130;-34
2022/03/30 09:11:30;;;;;;;0.10;0.10;;;;;;;21.47;34.03;100084.03;5139553;27;20130;-33
2022/03/30 09:14:03;;;;;;;0.10;0.10;;;;;;;21.48;33.89;100080.13;5143602;27;20073;-37
2022/03/30 09:16:38;;;;;;;0.20;0.20;;;;;;;21.48;33.93;100074.56;5113559;27;20081;-40
2022/03/30 09:19:05;;;;;;;0.10;0.10;;;;;;;21.48;33.88;100074.56;5136718;27;20194;-36
2022/03/30 09:21:42;;;;;;;0.10;0.10;;;;;;;21.50;33.98;100074.25;5122821;27;20070;-37
2022/03/30 09:24:09;;;;;;;0.10;0.10;;;;;;;21.51;34.02;100081.44;5121349;27;20137;-36
2022/03/30 09:26:35;;;;;;;0.10;0.10;;;;;;;21.37;33.62;100077.91;5124736;27;20126;-36
2022/03/30 09:29:03;;;;;;;0.10;0.10;;;;;;;21.48;33.62;100068.22;5127425;27;20051;-36
2022/03/30 09:31:30;;;;;;;0.10;0.10;;;;;;;21.51;33.72;100073.13;5145823;27;20129;-34
2022/03/30 09:34:00;;;;;;;0.10;0.10;;;;;;;21.53;33.79;100070.84;5116968;27;20062;-38
2022/03/30 09:36:29;;;;;;;0.10;0.10;;;;;;;21.55;33.68;100065.81;5141485;27;20070;-37
2022/03/30 09:38:54;;;;;;;;;;;;;;;21.56;33.69;100052.78;5130194;27;20138;-37
2022/03/30 09:41:20;;;;;;;0.10;0.10;;;;;;;21.56;33.95;100064.69;5132154;27;19926;-34
2022/03/30 09:43:46;;;;;;;0.10;0.10;;;;;;;21.57;33.76;100059.97;5133866;27;20039;-34
2022/03/30 09:46:13;;;;;;;0.13;0.13;;;;;;;21.60;33.81;100062.91;5118343;27;20050;-35
2022/03/30 09:48:49;;;;;;;0.10;0.10;;;;;;;21.60;33.70;100059.31;5118527;27;20046;-36
2022/03/30 09:51:16;;;;;;;0.10;0.10;;;;;;;21.59;33.90;100065.97;5120661;27;20390;-36
2022/03/30 09:53:42;;;;;;;0.10;0.10;;;;;;;21.60;33.78;100054.59;5121192;27;20129;-34
2022/03/30 09:56:14;;;;;;;0.10;0.10;;;;;;;21.63;33.95;100053.13;5115989;27;20138;-35
2022/03/30 09:58:40;;;;;;;0.10;0.10;;;;;;;21.61;33.99;100050.69;5138103;27;20364;-34
2022/03/30 10:01:23;;;;;;;0.10;0.10;;;;;;;21.62;33.96;100049.53;5133980;27;20556;-36
2022/03/30 10:03:59;;;;;;;0.20;0.20;;;;;;;21.63;33.89;100044.81;5143947;27;20055;-33
2022/03/30 10:06:32;;;;;;;0.10;0.10;;;;;;;21.64;33.68;100047.28;5127982;27;20043;-35
2022/03/30 10:09:04;;;;;;;0.15;0.15;;;;;;;21.62;33.90;100038.47;5124756;27;20043;-34
2022/03/30 10:11:30;;;;;;;0.10;0.10;;;;;;;21.64;34.04;100033.44;5132094;27;20095;-35
2022/03/30 10:13:59;;;;;;;0.10;0.10;;;;;;;21.65;33.63;100037.84;5123158;27;20086;-35
2022/03/30 10:16:43;;;;;;;0.10;0.10;;;;;;;21.65;33.95;100035.06;5126729;27;20058;-34
2022/03/30 10:19:09;;;;;;;0.10;0.10;;;;;;;21.65;33.91;100037.84;5137855;27;20530;-34
2022/03/30 10:21:46;;;;;;;0.10;0.10;;;;;;;21.66;33.65;100033.09;5118399;27;20055;-35
2022/03/30 10:24:40;;;;;;;0.10;0.10;;;;;;;21.66;33.86;100036.69;5126148;27;20540;-34
2022/03/30 10:27:28;;;;;;;0.10;0.10;;;;;;;21.66;33.88;100022.84;5110775;27;20081;-35
2022/03/30 10:29:56;;;;;;;0.10;0.10;;;;;;;21.67;33.81;100027.22;5125146;27;20156;-37
2022/03/30 10:32:24;;;;;;;0.10;0.10;;;;;;;21.68;33.63;100025.31;5097204;27;20137;-36
2022/03/30 10:35:00;;;;;;;0.10;0.10;;;;;;;21.67;33.70;100027.22;5141733;27;20141;-34
2022/03/30 10:37:34;;;;;;;0.10;0.10;;;;;;;21.66;33.75;100020.06;5117929;27;20110;-34
2022/03/30 10:42:58;;;;;;;0.10;0.10;;;;;;;21.66;33.89;100008.97;5145547;27;20196;-31
2022/03/30 10:45:33;;;;;;;0.10;0.10;;;;;;;21.65;33.81;100003.78;5142689;27;20073;-32
2022/03/30 10:48:20;;;;;;;0.10;0.10;;;;;;;21.66;33.81;100002.63;5118331;27;20057;-31
2022/03/30 10:50:51;;;;;;;0.10;0.10;;;;;;;21.65;33.65;100003.78;5123914;27;20063;-35
2022/03/30 11:01:29;;;;;;;0.10;0.10;;;;;;;21.61;33.65;99986.97;5152046;27;20519;-35
2022/03/30 11:07:15;;;;;;;0.10;0.10;;;;;;;21.59;33.57;99989.25;5163554;27;20206;-33
2022/03/30 11:09:42;;;;;;;0.35;0.20;;;;;;;21.58;33.69;99992.31;5142632;27;20057;-37
2022/03/30 11:12:12;;;;;;;0.10;0.10;;;;;;;21.57;33.70;99980.41;5164683;27;20496;-33
2022/03/30 11:14:43;;;;;;;0.10;0.10;;;;;;;21.57;33.79;99974.88;5140475;27;20496;-35
2022/03/30 11:17:14;;;;;;;0.10;0.10;;;;;;;21.57;33.71;99971.31;5154679;27;20126;-36
2022/03/30 11:22:29;;;;;;;0.20;0.20;;;;;;;21.57;29.69;99968.53;5168668;27;21350;-39
2022/03/30 11:25:23;;;;;;;0.25;0.25;;;;;;;21.24;30.75;99963.28;5126167;27;20316;-36
2022/03/30 11:28:10;;;;;;;0.20;0.20;;;;;;;21.11;31.28;99961.44;5128565;27;20085;-38
2022/03/30 11:30:38;;;;;;;0.10;0.10;;;;;;;21.34;31.14;99953.94;5156664;27;20061;-34
2022/03/30 11:33:19;;;;;;;0.10;0.10;;;;;;;21.45;31.50;99950.53;5148377;27;20224;-34
2022/03/30 11:35:46;;;;;;;0.10;0.10;;;;;;;21.48;31.41;99941.59;5152329;27;20129;-33
2022/03/30 11:38:25;;;;;;;0.10;0.10;;;;;;;21.51;31.54;99943.75;5140119;27;20450;-38
2022/03/30 11:40:59;;;;;;;0.10;0.10;;;;;;;21.53;31.68;99941.47;5138393;27;20089;-33
2022/03/30 11:43:24;;;;;;;0.10;0.10;;;;;;;21.56;31.91;99934.47;5117678;27;20190;-33
2022/03/30 11:46:00;;;;;;;0.10;0.10;;;;;;;21.57;32.04;99932.50;5140418;27;20341;-36
2022/03/30 11:48:33;;;;;;;0.10;0.10;;;;;;;21.57;32.23;99930.56;5141322;27;20501;-36
2022/03/30 11:51:00;;;;;;;0.10;0.10;;;;;;;21.58;32.20;99931.38;5139801;27;20125;-36
2022/03/30 11:53:29;;;;;;;0.10;0.10;;;;;;;21.59;32.20;99927.44;5141262;27;20183;-38